Data for 04/09/2016

Time Sea-Level Adjusted Pressure Absolute Pressure Temperature Relative Humidity Dew Point   
(mb) (inHg) (mb) (inHg) (C) (F) (%) (C) (F)
00:05 1012 29.88 841 24.83 10.1 50.2 27 -8 17.5
00:10 1012 29.88 841 24.83 9.7 49.5 28 -8.1 17.4
00:15 1012 29.88 841 24.83 9.6 49.3 28 -8.1 17.3
00:20 1012 29.88 841 24.83 9.3 48.7 29 -7.8 17.9
00:25 1012 29.88 841 24.83 8.8 47.9 30 -8 17.6
00:30 1012 29.88 841 24.83 9 48.3 29 -8.2 17.3
00:35 1012 29.88 841 24.83 9 48.3 29 -8.3 17.1
00:40 1012 29.88 841 24.83 9 48.1 28 -8.6 16.6
00:45 1012 29.88 841 24.83 9.1 48.4 27 -8.8 16.1
00:50 1011 29.85 841 24.83 9.2 48.6 26 -9.3 15.2
00:55 1011 29.85 841 24.83 9.6 49.2 25 -9.4 15.1
01:00 1011 29.85 841 24.83 9.7 49.4 25 -9.5 15
01:05 1011 29.85 841 24.83 9.6 49.2 25 -9.3 15.3
01:10 1011 29.85 840 24.81 9.3 48.7 26 -9 15.8
01:15 1011 29.85 840 24.81 9.1 48.3 27 -9 15.9
01:20 1011 29.85 840 24.81 9 48.1 27 -9.2 15.5
01:25 1011 29.85 840 24.81 8.8 47.9 26 -9.6 14.8
01:30 1011 29.85 840 24.81 8.9 48 26 -9.8 14.3
01:35 1011 29.85 840 24.81 9.3 48.7 25 -10 14.1
01:40 1011 29.85 840 24.81 9.5 49.1 24 -10.3 13.5
01:45 1011 29.85 840 24.81 9.6 49.4 23 -10.3 13.4
01:50 1011 29.85 840 24.81 9.5 49 24 -9.9 14.2
01:55 1011 29.85 840 24.81 9 48.2 25 -10.2 13.6
02:00 1011 29.85 840 24.81 9 48.3 26 -9.5 14.9
02:05 1011 29.85 840 24.81 8.6 47.4 27 -9.6 14.7
02:10 1011 29.85 840 24.81 8.4 47 25 -10.4 13.2
02:15 1011 29.85 840 24.81 8.9 48 24 -10.4 13.3
02:20 1011 29.85 840 24.81 8.8 47.9 27 -9.2 15.5
02:25 1011 29.85 840 24.81 8.5 47.3 29 -8.5 16.7
02:30 1011 29.85 840 24.81 7.8 46 30 -8.5 16.7
02:35 1011 29.85 840 24.81 7.7 45.9 28 -9.6 14.8
02:40 1011 29.85 840 24.81 8.3 46.9 28 -9 15.7
02:45 1011 29.85 840 24.81 7.8 46.1 31 -8.1 17.5
02:50 1011 29.85 840 24.81 6.8 44.3 34 -7.9 17.7
02:55 1011 29.85 840 24.81 6.6 43.9 33 -8.5 16.7
03:00 1011 29.85 840 24.81 6.9 44.5 31 -9.2 15.5
03:05 1011 29.85 840 24.81 7.7 45.9 31 -8.4 16.9
03:10 1010 29.83 840 24.81 7.4 45.3 28 -10 13.9
03:15 1011 29.85 840 24.81 7.4 45.2 31 -8.7 16.3
03:20 1011 29.85 840 24.81 6.9 44.4 30 -9.4 15.1
03:25 1011 29.85 840 24.81 7 44.7 31 -9.2 15.5
03:30 1010 29.83 840 24.81 7 44.6 32 -8.6 16.5
03:35 1010 29.83 840 24.81 6.7 44.1 30 -9.6 14.7
03:40 1010 29.83 840 24.81 7.5 45.4 30 -9.2 15.5
03:45 1010 29.83 840 24.81 8 46.4 31 -8.1 17.5
03:50 1011 29.85 840 24.81 7.5 45.4 33 -8 17.7
03:55 1011 29.85 840 24.81 7.5 45.5 32 -8.2 17.2
04:00 1011 29.85 840 24.81 7.9 46.3 31 -8.3 17.1
04:05 1010 29.83 840 24.81 7.9 46.3 32 -7.9 17.8
04:10 1010 29.83 840 24.81 7.4 45.3 34 -7.4 18.7
04:15 1010 29.83 840 24.81 6.5 43.7 38 -6.7 19.9
04:20 1010 29.83 840 24.81 6.3 43.3 35 -8.1 17.5
04:25 1010 29.83 840 24.81 6.5 43.7 38 -6.8 19.7
04:30 1010 29.83 840 24.81 6.4 43.5 32 -9 15.9
04:35 1010 29.83 840 24.81 7.5 45.4 27 -10.4 13.3
04:40 1010 29.83 840 24.81 7.4 45.3 33 -7.8 18
04:45 1010 29.83 840 24.81 6.7 44.1 36 -7.5 18.5
04:50 1010 29.83 840 24.81 6.6 43.9 34 -8.1 17.4
04:55 1010 29.83 840 24.81 7 44.6 35 -7.4 18.7
05:00 1010 29.83 839 24.78 6.8 44.3 34 -7.9 17.9
05:05 1010 29.83 839 24.78 7 44.6 34 -7.8 18
05:10 1010 29.83 839 24.78 7.5 45.6 30 -8.8 16.2
05:15 1010 29.83 839 24.78 8 46.3 29 -8.8 16.1
05:20 1010 29.83 839 24.78 8.2 46.8 30 -8.5 16.8
05:25 1010 29.83 839 24.78 8 46.3 32 -7.6 18.3
05:30 1010 29.83 839 24.78 6.7 44.1 37 -6.8 19.7
05:35 1010 29.83 839 24.78 5.7 42.3 39 -7 19.4
05:40 1010 29.83 839 24.78 6 42.8 37 -7.5 18.6
05:45 1010 29.83 839 24.78 6.1 42.9 40 -6.6 20.1
05:50 1010 29.83 839 24.78 5.7 42.3 42 -6.4 20.6
05:55 1010 29.83 839 24.78 5.5 41.9 43 -6.2 20.9
06:00 1010 29.83 839 24.78 5.3 41.5 41 -7 19.4
06:05 1010 29.83 839 24.78 5.4 41.8 43 -6.1 21
06:10 1010 29.83 839 24.78 5.7 42.2 40 -7 19.4
06:15 1010 29.83 839 24.78 6 42.8 39 -6.8 19.7
06:20 1010 29.83 839 24.78 6.2 43.1 39 -6.8 19.8
06:25 1010 29.83 839 24.78 6 42.7 40 -6.6 20.1
06:30 1010 29.83 839 24.78 6.1 43 36 -7.7 18.1
06:35 1010 29.83 839 24.78 6.4 43.4 37 -7.2 19
06:40 1010 29.83 839 24.78 6.3 43.3 37 -7.2 19.1
06:45 1010 29.83 839 24.78 6.6 43.8 34 -8.2 17.3
06:50 1010 29.83 839 24.78 6.9 44.5 32 -8.5 16.7
06:55 1010 29.83 839 24.78 7.3 45.1 35 -7.1 19.2
07:00 1010 29.83 840 24.81 6.7 44.1 33 -8.4 16.9
07:05 1010 29.83 840 24.81 7.2 45 33 -8 17.5
07:10 1010 29.83 840 24.81 7.5 45.5 32 -8.2 17.3
07:15 1010 29.83 840 24.81 7.7 45.8 33 -7.5 18.6
07:20 1010 29.83 840 24.81 7.8 46 34 -7.3 18.9
07:25 1010 29.83 840 24.81 7.9 46.1 31 -8.1 17.3
07:30 1010 29.83 840 24.81 8.6 47.6 30 -8 17.6
07:35 1011 29.85 840 24.81 9 48.3 33 -6.2 20.8
07:40 1010 29.83 840 24.81 9.1 48.3 35 -5.5 22.2
07:45 1010 29.83 840 24.81 8.9 48.1 36 -5.2 22.7
07:50 1010 29.83 840 24.81 8.7 47.6 39 -4.6 23.7
07:55 1011 29.85 840 24.81 8.2 46.8 38 -5.2 22.6
08:00 1011 29.85 840 24.81 8.6 47.5 38 -5 23.1
08:05 1011 29.85 840 24.81 8.9 48 39 -4.1 24.6
08:10 1011 29.85 840 24.81 9.2 48.6 38 -4.3 24.2
08:15 1011 29.85 840 24.81 9.7 49.5 37 -4.1 24.6
08:20 1011 29.85 840 24.81 10.6 51 36 -3.9 24.9
08:25 1011 29.85 840 24.81 10.9 51.6 34 -4.3 24.3
08:30 1010 29.83 840 24.81 11.2 52.2 32 -5 22.9
08:35 1010 29.83 840 24.81 11.9 53.4 30 -4.9 23.2
08:40 1010 29.83 840 24.81 12.9 55.2 28 -5 23.1
08:45 1010 29.83 840 24.81 13.2 55.8 25 -6.2 20.9
08:50 1010 29.83 840 24.81 13.5 56.3 25 -6.1 21.1
08:55 1010 29.83 839 24.78 13.8 56.8 24 -6.6 20.2
09:00 1010 29.83 839 24.78 14 57.3 23 -6.6 20
09:05 1010 29.83 839 24.78 14.4 57.8 22 -7.3 18.9
09:10 1010 29.83 839 24.78 15.2 59.4 21 -7 19.3
09:15 1010 29.83 839 24.78 15.5 59.9 17 -9.1 15.5
09:20 1010 29.83 839 24.78 15.6 60.1 20 -7.5 18.5
09:25 1010 29.83 839 24.78 16 60.8 20 -6.8 19.7
09:30 1010 29.83 839 24.78 16.3 61.4 20 -6.4 20.5
09:35 1010 29.83 839 24.78 17.3 63.1 19 -6.3 20.7
09:40 1010 29.83 839 24.78 17.6 63.7 21 -4.8 23.4
09:45 1010 29.83 839 24.78 17.8 64.1 19 -6.2 20.9
09:50 1010 29.83 839 24.78 18.5 65.2 21 -4.4 24.1
09:55 1010 29.83 839 24.78 18.4 65.1 21 -4.3 24.3
10:00 1010 29.83 839 24.78 17.2 63 22 -4.5 23.8
10:05 1010 29.83 839 24.78 17.4 63.3 21 -5.1 22.8
10:10 1010 29.83 839 24.78 18.6 65.4 19 -5.1 22.7
10:15 1010 29.83 839 24.78 18.2 64.8 20 -5 23
10:20 1010 29.83 839 24.78 17.8 64.1 20 -5.3 22.5
10:25 1010 29.83 839 24.78 17 62.6 23 -4.5 24
10:30 1010 29.83 839 24.78 15.5 59.9 24 -4.8 23.3
10:35 1010 29.83 839 24.78 15.8 60.5 24 -4.8 23.4
10:40 1010 29.83 839 24.78 15.9 60.6 21 -6.4 20.6
10:45 1010 29.83 839 24.78 16.2 61.1 20 -6.7 20
10:50 1010 29.83 839 24.78 16.6 61.9 19 -6.8 19.8
10:55 1010 29.83 839 24.78 16.3 61.4 20 -6.4 20.5
11:00 1010 29.83 839 24.78 16.9 62.4 19 -6.5 20.3
11:05 1010 29.83 839 24.78 18 64.3 18 -6.7 20
11:10 1010 29.83 839 24.78 18.3 64.9 18 -6.2 20.9
11:15 1009 29.8 839 24.78 19 66.2 17 -6.6 20.2
11:20 1009 29.8 839 24.78 19.9 67.7 15 -7.2 19
11:25 1009 29.8 839 24.78 20.3 68.6 16 -6.5 20.3
11:30 1009 29.8 839 24.78 20.7 69.2 15 -6.9 19.6
11:35 1009 29.8 839 24.78 20.8 69.5 14 -7.2 19.1
11:40 1009 29.8 839 24.78 21.4 70.5 14 -7.1 19.2
11:45 1009 29.8 839 24.78 21.5 70.8 15 -6.3 20.6
11:50 1009 29.8 838 24.75 21.3 70.4 15 -6.1 21.1
11:55 1009 29.8 838 24.75 21.5 70.6 14 -6.8 19.7
12:00 1009 29.8 838 24.75 21.1 70 15 -6.8 19.7
12:05 1009 29.8 838 24.75 21.3 70.4 14 -7 19.4
12:10 1009 29.8 838 24.75 21.8 71.3 14 -6.8 19.8
12:15 1009 29.8 838 24.75 22.2 71.9 13 -6.9 19.6
12:20 1009 29.8 838 24.75 22.7 72.8 13 -6.5 20.2
12:25 1009 29.8 838 24.75 21.7 71.1 14 -6.5 20.4
12:30 1009 29.8 838 24.75 21 69.7 14 -7.2 19
12:35 1009 29.8 838 24.75 21.2 70.1 15 -6.6 20.1
12:40 1009 29.8 838 24.75 21.9 71.5 15 -6.1 20.9
12:45 1009 29.8 838 24.75 21.5 70.7 15 -6.1 21
12:50 1008 29.77 838 24.75 21.2 70.2 15 -6.5 20.4
12:55 1008 29.77 838 24.75 20.4 68.8 15 -6.6 20.1
13:00 1008 29.77 838 24.75 21.4 70.5 15 -5.8 21.6
13:05 1008 29.77 838 24.75 21.5 70.6 15 -5.9 21.5
13:10 1008 29.77 837 24.72 21.5 70.8 16 -5.6 21.9
13:15 1008 29.77 837 24.72 20.9 69.6 16 -5.4 22.3
13:20 1008 29.77 837 24.72 20.6 69.2 16 -5.6 21.8
13:25 1008 29.77 837 24.72 21.2 70.1 15 -6.5 20.3
13:30 1008 29.77 837 24.72 21.5 70.7 15 -6.1 21
13:35 1008 29.77 837 24.72 21.6 70.9 15 -6.4 20.5
13:40 1008 29.77 837 24.72 21.5 70.6 15 -6.5 20.3
13:45 1008 29.77 837 24.72 21.4 70.6 14 -6.7 19.9
13:50 1008 29.77 837 24.72 21.5 70.7 14 -7.2 19
13:55 1008 29.77 837 24.72 21.4 70.5 14 -6.9 19.5
14:00 1008 29.77 837 24.72 21.3 70.3 15 -6.4 20.4
14:05 1008 29.77 837 24.72 21.1 70.1 14 -7.4 18.7
14:10 1008 29.77 837 24.72 21.8 71.2 14 -7 19.4
14:15 1008 29.77 837 24.72 22 71.6 14 -6.9 19.5
14:20 1008 29.77 837 24.72 22 71.5 13 -7.5 18.5
14:25 1007 29.74 837 24.72 22.5 72.4 13 -7.5 18.6
14:30 1007 29.74 837 24.72 22.5 72.6 12 -7.7 18.1
14:35 1007 29.74 837 24.72 22.8 73.1 12 -8.2 17.3
14:40 1007 29.74 836 24.69 22.5 72.5 12 -7.7 18.1
14:45 1007 29.74 836 24.69 22.4 72.4 13 -7.6 18.4
14:50 1007 29.74 836 24.69 22.4 72.4 12 -8.6 16.6
14:55 1007 29.74 836 24.69 22.4 72.4 12 -8.1 17.4
15:00 1007 29.74 836 24.69 22.2 72 12 -8.5 16.7
15:05 1007 29.74 836 24.69 21.8 71.3 12 -8.5 16.6
15:10 1007 29.74 836 24.69 21.8 71.2 13 -8.2 17.3
15:15 1007 29.74 836 24.69 22.1 71.7 13 -7.6 18.3
15:20 1007 29.74 836 24.69 21.9 71.4 12 -8.2 17.3
15:25 1007 29.74 836 24.69 22.2 71.9 13 -7.8 17.9
15:30 1007 29.74 836 24.69 22.6 72.6 13 -7.4 18.7
15:35 1007 29.74 836 24.69 22.3 72.1 12 -8.2 17.3
15:40 1007 29.74 836 24.69 21.7 71 13 -8.2 17.3
15:45 1007 29.74 836 24.69 21.8 71.3 12 -8.4 16.9
15:50 1007 29.74 836 24.69 21.8 71.2 12 -8.2 17.2
15:55 1007 29.74 836 24.69 22 71.5 12 -8.1 17.5
16:00 1007 29.74 836 24.69 21.9 71.5 12 -8.3 17
16:05 1007 29.74 836 24.69 21.9 71.4 13 -8 17.6
16:10 1007 29.74 836 24.69 21.7 71.1 13 -7.7 18.2
16:15 1007 29.74 836 24.69 21.6 70.8 13 -7.4 18.6
16:20 1007 29.74 836 24.69 21.5 70.6 14 -7.3 18.9
16:25 1007 29.74 836 24.69 21.4 70.5 14 -7.4 18.7
16:30 1007 29.74 836 24.69 21.3 70.3 14 -7 19.3
16:35 1007 29.74 836 24.69 21.1 70 14 -7 19.4
16:40 1007 29.74 836 24.69 21.1 70 14 -7 19.5
16:45 1007 29.74 836 24.69 21.4 70.5 14 -7.1 19.2
16:50 1007 29.74 836 24.69 21.3 70.3 15 -6.4 20.5
16:55 1007 29.74 836 24.69 21.3 70.4 15 -6.4 20.4
17:00 1007 29.74 836 24.69 21.6 71 14 -6.5 20.4
17:05 1007 29.74 836 24.69 21.6 70.9 14 -6.9 19.5
17:10 1007 29.74 836 24.69 21.4 70.6 14 -6.7 19.9
17:15 1007 29.74 836 24.69 21.2 70.1 15 -6.3 20.7
17:20 1007 29.74 836 24.69 21 69.9 15 -6 21.1
17:25 1007 29.74 836 24.69 21 69.7 15 -6.4 20.5
17:30 1007 29.74 836 24.69 20.6 69.1 16 -6.3 20.7
17:35 1007 29.74 836 24.69 20.6 69 16 -6.3 20.6
17:40 1006 29.71 836 24.69 20.6 69 16 -6.3 20.6
17:45 1006 29.71 836 24.69 20.4 68.7 15 -6.6 20.2
17:50 1006 29.71 836 24.69 20.3 68.5 16 -6.2 20.8
17:55 1007 29.74 836 24.69 20.1 68.2 15 -6.9 19.5
18:00 1007 29.74 836 24.69 20.2 68.3 15 -6.8 19.8
18:05 1007 29.74 836 24.69 20.2 68.3 16 -6.7 20
18:10 1007 29.74 836 24.69 20.1 68.2 16 -6.7 20
18:15 1007 29.74 836 24.69 20.1 68.3 16 -6.1 21.1
18:20 1007 29.74 836 24.69 20.1 68.2 16 -6.7 20
18:25 1007 29.74 836 24.69 20 68 17 -5.9 21.3
18:30 1007 29.74 836 24.69 20 67.9 16 -6.1 20.9
18:35 1007 29.74 836 24.69 19.8 67.6 17 -5.8 21.6
18:40 1007 29.74 836 24.69 19.7 67.4 17 -5.7 21.7
18:45 1007 29.74 836 24.69 19.6 67.3 17 -5.9 21.3
18:50 1007 29.74 836 24.69 19.2 66.6 22 -2.7 27.1
18:55 1007 29.74 836 24.69 16.9 62.5 27 -2.2 28
19:00 1007 29.74 836 24.69 15.6 60 29 -2.4 27.6
19:05 1007 29.74 836 24.69 15 59.1 30 -2.4 27.7
19:10 1007 29.74 836 24.69 14.6 58.3 31 -2.4 27.7
19:15 1007 29.74 836 24.69 14.3 57.8 31 -2.3 27.9
19:20 1007 29.74 836 24.69 14.1 57.3 32 -2.4 27.7
19:25 1007 29.74 837 24.72 13.9 57 32 -2.4 27.7
19:30 1007 29.74 837 24.72 13.7 56.7 33 -2.4 27.7
19:35 1008 29.77 837 24.72 13.5 56.3 33 -2.5 27.6
19:40 1008 29.77 837 24.72 13.4 56.1 33 -2.6 27.4
19:45 1008 29.77 837 24.72 13.1 55.6 33 -2.6 27.4
19:50 1008 29.77 837 24.72 13 55.4 34 -2.6 27.3
19:55 1008 29.77 837 24.72 12.9 55.2 34 -2.7 27.2
20:00 1008 29.77 837 24.72 12.7 54.8 34 -2.6 27.2
20:05 1008 29.77 837 24.72 12.5 54.6 35 -2.6 27.3
20:10 1008 29.77 837 24.72 12.4 54.4 35 -2.5 27.5
20:15 1008 29.77 837 24.72 12.3 54.1 35 -2.5 27.5
20:20 1008 29.77 838 24.75 12.1 53.7 37 -2.3 27.9
20:25 1008 29.77 838 24.75 11.9 53.5 37 -2.3 27.9
20:30 1009 29.8 838 24.75 11.6 52.9 38 -2.1 28.2
20:35 1009 29.8 838 24.75 11.4 52.5 39 -2.1 28.2
20:40 1009 29.8 838 24.75 11.2 52.1 39 -2.2 28
20:45 1009 29.8 838 24.75 11.1 52 40 -2 28.3
20:50 1009 29.8 838 24.75 11 51.9 39 -2.4 27.8
20:55 1009 29.8 838 24.75 11.1 52 38 -2.6 27.4
21:00 1009 29.8 838 24.75 11.2 52.1 39 -2.3 27.9
21:05 1009 29.8 838 24.75 11 51.8 39 -2.5 27.6
21:10 1009 29.8 838 24.75 11 51.7 39 -2.4 27.6
21:15 1009 29.8 838 24.75 10.8 51.4 40 -2.2 28
21:20 1009 29.8 838 24.75 10.6 51 40 -2.3 27.8
21:25 1009 29.8 839 24.78 10.5 50.9 41 -2.2 28.1
21:30 1009 29.8 839 24.78 10.3 50.6 41 -2.3 27.9
21:35 1009 29.8 839 24.78 10.3 50.5 41 -2.4 27.7
21:40 1009 29.8 839 24.78 10.2 50.3 42 -2.2 28
21:45 1009 29.8 839 24.78 10 50 42 -2.3 27.8
21:50 1009 29.8 839 24.78 9.8 49.7 43 -2.2 28
21:55 1009 29.8 839 24.78 9.7 49.4 43 -2.4 27.7
22:00 1010 29.83 839 24.78 9.6 49.2 43 -2.4 27.7
22:05 1010 29.83 839 24.78 9.5 49 43 -2.4 27.6
22:10 1010 29.83 839 24.78 9.3 48.8 43 -2.4 27.6
22:15 1010 29.83 839 24.78 9.2 48.5 43 -2.7 27.2
22:20 1010 29.83 839 24.78 9.1 48.3 44 -2.6 27.3
22:25 1010 29.83 839 24.78 8.9 48 44 -2.7 27.1
22:30 1010 29.83 839 24.78 8.8 47.8 44 -2.7 27.1
22:35 1010 29.83 839 24.78 8.7 47.6 44 -2.8 26.9
22:40 1010 29.83 839 24.78 8.6 47.5 45 -2.6 27.2
22:45 1010 29.83 839 24.78 8.4 47.2 45 -2.8 26.9
22:50 1010 29.83 839 24.78 8.3 47 45 -2.8 27
22:55 1010 29.83 839 24.78 8.3 47 45 -2.9 26.7
23:00 1010 29.83 839 24.78 8.3 46.9 45 -2.9 26.8
23:05 1010 29.83 839 24.78 8.2 46.8 46 -2.8 26.9
23:10 1010 29.83 839 24.78 8.1 46.6 46 -2.9 26.9
23:15 1010 29.83 840 24.81 8 46.4 45 -3.1 26.4
23:20 1010 29.83 840 24.81 8 46.5 46 -3 26.6
23:25 1010 29.83 840 24.81 7.9 46.3 46 -3.1 26.4
23:30 1010 29.83 840 24.81 7.9 46.2 46 -3 26.5
23:35 1010 29.83 840 24.81 7.8 46 46 -3.1 26.4
23:40 1011 29.85 840 24.81 7.8 46 46 -3.2 26.2
23:45 1011 29.85 840 24.81 7.7 45.8 46 -3.3 26.1
23:50 1011 29.85 840 24.81 7.6 45.8 46 -3.4 26
23:55 1011 29.85 840 24.81 7.6 45.7 46 -3.2 26.2
24:00 1011 29.85 840 24.81 7.5 45.5 46 -3.3 26.1